createdAt,value
2023-09-14T00:00:46.078Z,100245.45
2023-09-14T00:06:05.951Z,100243.55
2023-09-14T00:11:14.095Z,100245.04
2023-09-14T00:16:21.563Z,100246.70
2023-09-14T00:21:29.115Z,100244.77
2023-09-14T00:26:36.718Z,100247.96
2023-09-14T00:31:44.238Z,100253.36
2023-09-14T00:36:51.552Z,100255.50
2023-09-14T00:41:58.920Z,100255.77
2023-09-14T00:47:06.512Z,100262.98
2023-09-14T00:52:15.326Z,100260.70
2023-09-14T00:57:22.701Z,100258.86
2023-09-14T01:02:30.660Z,100264.23
2023-09-14T01:07:38.953Z,100270.98
2023-09-14T01:12:48.364Z,100269.54
2023-09-14T01:18:04.261Z,100274.70
2023-09-14T01:23:29.352Z,100277.85
2023-09-14T01:28:36.638Z,100273.33
2023-09-14T01:33:44.636Z,100273.61
2023-09-14T01:38:56.125Z,100274.80
2023-09-14T01:44:05.042Z,100275.52
2023-09-14T01:49:12.760Z,100272.70
2023-09-14T01:54:20.129Z,100280.18
2023-09-14T01:59:27.691Z,100289.02
2023-09-14T02:04:35.090Z,100290.38
2023-09-14T02:09:42.689Z,100294.69
2023-09-14T02:14:51.448Z,100298.40
2023-09-14T02:19:59.362Z,100299.97
2023-09-14T02:25:07.889Z,100296.68
2023-09-14T02:30:15.787Z,100301.71
2023-09-14T02:35:23.086Z,100305.80
2023-09-14T02:40:30.676Z,100303.38
2023-09-14T02:45:38.008Z,100305.02
2023-09-14T02:50:46.248Z,100310.14
2023-09-14T02:55:53.445Z,100331.19
2023-09-14T03:01:01.551Z,100341.13
2023-09-14T03:06:09.377Z,100350.98
2023-09-14T03:11:17.102Z,100353.31
2023-09-14T03:16:24.601Z,100364.27
2023-09-14T03:21:32.102Z,100374.52
2023-09-14T03:26:39.876Z,100375.89
2023-09-14T03:31:47.347Z,100375.35
2023-09-14T03:36:54.675Z,100380.82
2023-09-14T03:42:02.062Z,100383.20
2023-09-14T03:47:10.605Z,100372.41
2023-09-14T03:52:17.981Z,100375.40
2023-09-14T03:57:25.959Z,100384.66
2023-09-14T04:02:33.997Z,100389.77
2023-09-14T04:07:41.446Z,100393.27
2023-09-14T04:12:48.796Z,100400.02
2023-09-14T04:17:55.987Z,100403.22
2023-09-14T04:23:03.487Z,100414.44
2023-09-14T04:28:11.420Z,100421.61
2023-09-14T04:33:20.713Z,100430.59
2023-09-14T04:38:28.086Z,100431.06
2023-09-14T04:43:37.406Z,100436.46
2023-09-14T04:48:45.032Z,100441.89
2023-09-14T04:53:55.339Z,100449.65
2023-09-14T04:59:05.195Z,100453.83
2023-09-14T05:04:13.560Z,100460.42
2023-09-14T05:09:21.672Z,100463.05
2023-09-14T05:14:29.423Z,100470.04
2023-09-14T05:19:36.805Z,100475.48
2023-09-14T05:24:44.692Z,100479.28
2023-09-14T05:29:53.184Z,100485.25
2023-09-14T05:35:00.572Z,100494.11
2023-09-14T05:40:13.439Z,100501.51
2023-09-14T05:45:23.342Z,100511.66
2023-09-14T05:50:31.085Z,100515.45
2023-09-14T05:55:38.842Z,100519.27
2023-09-14T06:00:48.214Z,100529.29
2023-09-14T06:05:57.038Z,100533.14
2023-09-14T06:11:06.061Z,100537.27
2023-09-14T06:16:13.673Z,100536.89
2023-09-14T06:21:21.097Z,100538.26
2023-09-14T06:26:30.473Z,100537.96
2023-09-14T06:31:38.108Z,100544.88
2023-09-14T06:36:45.451Z,100551.88
2023-09-14T06:41:52.776Z,100555.48
2023-09-14T06:47:01.880Z,100566.70
2023-09-14T06:52:09.735Z,100575.10
2023-09-14T06:57:17.415Z,100580.34
2023-09-14T07:02:24.681Z,100589.52
2023-09-14T07:07:32.229Z,100601.12
2023-09-14T07:12:39.554Z,100604.44
2023-09-14T07:17:46.775Z,100610.84
2023-09-14T07:22:55.300Z,100618.55
2023-09-14T07:28:02.636Z,100619.35
2023-09-14T07:33:09.983Z,100621.23
2023-09-14T07:38:17.678Z,100629.32
2023-09-14T07:43:24.980Z,100630.98
2023-09-14T07:48:32.305Z,100641.66
2023-09-14T07:53:39.771Z,100644.36
2023-09-14T07:58:47.251Z,100645.45
2023-09-14T08:03:54.604Z,100645.66
2023-09-14T08:09:02.956Z,100648.10
2023-09-14T08:14:10.379Z,100653.98
2023-09-14T08:19:18.152Z,100658.03
2023-09-14T08:24:25.378Z,100661.48
2023-09-14T08:29:32.659Z,100666.98
2023-09-14T08:34:39.926Z,100665.83
2023-09-14T08:39:47.225Z,100668.44
2023-09-14T08:44:56.481Z,100679.70
2023-09-14T08:50:06.166Z,100678.64
2023-09-14T08:55:15.231Z,100682.68
2023-09-14T09:00:22.561Z,100690.35
2023-09-14T09:05:30.477Z,100691.31
2023-09-14T09:10:37.940Z,100692.83
2023-09-14T09:15:45.721Z,100693.63
2023-09-14T09:20:53.474Z,100690.70
2023-09-14T09:26:01.488Z,100692.23
2023-09-14T09:31:08.855Z,100690.98
2023-09-14T09:36:20.915Z,100693.39
2023-09-14T09:41:28.234Z,100691.41
2023-09-14T09:46:37.461Z,100691.77
2023-09-14T09:51:45.880Z,100693.73
2023-09-14T09:56:54.001Z,100692.91
2023-09-14T10:02:01.242Z,100689.48
2023-09-14T10:07:11.542Z,100686.34
2023-09-14T10:12:18.910Z,100681.61
2023-09-14T10:17:26.828Z,100683.06
2023-09-14T10:22:34.660Z,100690.91
2023-09-14T10:27:43.735Z,100693.79
2023-09-14T10:32:54.078Z,100699.04
2023-09-14T10:38:01.040Z,100703.09
2023-09-14T10:43:11.594Z,100703.85
2023-09-14T10:48:18.981Z,100708.42
2023-09-14T10:53:28.356Z,100710.70
2023-09-14T10:58:45.204Z,100702.92
2023-09-14T11:04:14.787Z,100706.24
2023-09-14T11:09:24.753Z,100709.95
2023-09-14T11:14:32.681Z,100704.70
2023-09-14T11:19:59.005Z,100704.23
2023-09-14T11:25:24.742Z,100706.82
2023-09-14T11:30:42.740Z,100706.11
2023-09-14T11:35:56.213Z,100713.42
2023-09-14T11:41:23.308Z,100719.23
2023-09-14T11:46:34.608Z,100716.14
2023-09-14T11:51:42.273Z,100717.51
2023-09-14T11:56:50.315Z,100718.87
2023-09-14T12:01:57.807Z,100721.63
2023-09-14T12:07:06.053Z,100715.86
2023-09-14T12:12:25.978Z,100715.71
2023-09-14T12:17:33.662Z,100715.44
2023-09-14T12:22:41.763Z,100715.13
2023-09-14T12:27:49.832Z,100712.88
2023-09-14T12:32:57.670Z,100712.96
2023-09-14T12:38:06.030Z,100720.33
2023-09-14T12:43:14.445Z,100722.48
2023-09-14T12:48:21.842Z,100717.49
2023-09-14T12:53:29.252Z,100713.47
2023-09-14T12:58:36.609Z,100714.27
2023-09-14T13:03:44.300Z,100716.69
2023-09-14T13:08:54.844Z,100718.48
2023-09-14T13:14:02.131Z,100723.15
2023-09-14T13:19:09.474Z,100726.14
2023-09-14T13:24:16.673Z,100723.49
2023-09-14T13:29:23.976Z,100726.10
2023-09-14T13:34:31.298Z,100717.46
2023-09-14T13:39:38.556Z,100722.40
2023-09-14T13:44:45.908Z,100717.66
2023-09-14T13:49:53.503Z,100719.45
2023-09-14T13:55:00.727Z,100718.83
2023-09-14T14:00:11.946Z,100719.15
2023-09-14T14:05:20.481Z,100712.27
2023-09-14T14:10:27.764Z,100709.38
2023-09-14T14:15:35.799Z,100706.84
2023-09-14T14:20:43.249Z,100701.76
2023-09-14T14:25:50.576Z,100691.56
2023-09-14T14:30:59.255Z,100687.40
2023-09-14T14:36:07.192Z,100687.92
2023-09-14T14:41:36.676Z,100690.68
2023-09-14T14:46:42.053Z,100692.78
2023-09-14T14:51:49.380Z,100695.05
2023-09-14T14:56:56.852Z,100696.61
2023-09-14T15:02:04.190Z,100696.73
2023-09-14T15:07:13.397Z,100700.86
2023-09-14T15:12:20.899Z,100703.66
2023-09-14T15:17:28.285Z,100703.45
2023-09-14T15:22:35.766Z,100714.06
2023-09-14T15:27:43.021Z,100718.64
2023-09-14T15:32:50.359Z,100717.92
2023-09-14T15:37:57.961Z,100721.34
2023-09-14T15:43:05.587Z,100723.86
2023-09-14T15:48:15.601Z,100731.91
2023-09-14T15:53:24.986Z,100739.16
2023-09-14T15:58:32.482Z,100743.67
2023-09-14T16:03:39.854Z,100742.84
2023-09-14T16:08:47.465Z,100743.99
2023-09-14T16:13:55.122Z,100747.52
2023-09-14T16:19:02.319Z,100751.52
2023-09-14T16:24:12.238Z,100748.57
2023-09-14T16:29:20.139Z,100754.75
2023-09-14T16:34:27.503Z,100759.04
2023-09-14T16:39:34.915Z,100757.58
2023-09-14T16:44:42.710Z,100758.19
2023-09-14T16:49:50.147Z,100754.19
2023-09-14T16:54:57.493Z,100755.91
2023-09-14T17:00:08.712Z,100755.15
2023-09-14T17:05:18.313Z,100756.27
2023-09-14T17:10:26.879Z,100754.42
2023-09-14T17:15:34.362Z,100758.15
2023-09-14T17:20:41.618Z,100761.84
2023-09-14T17:25:54.649Z,100766.16
2023-09-14T17:31:02.059Z,100767.58
2023-09-14T17:36:09.713Z,100773.38
2023-09-14T17:41:17.055Z,100778.77
2023-09-14T17:46:24.872Z,100781.19
2023-09-14T17:51:32.192Z,100781.73
2023-09-14T17:56:39.419Z,100781.30
2023-09-14T18:01:47.094Z,100791.30
2023-09-14T18:06:54.380Z,100790.35
2023-09-14T18:12:08.029Z,100791.13
2023-09-14T18:17:16.046Z,100794.10
2023-09-14T18:22:23.441Z,100797.94
2023-09-14T18:27:32.970Z,100805.70
2023-09-14T18:32:55.901Z,100813.06
2023-09-14T18:38:03.106Z,100814.39
2023-09-14T18:43:11.432Z,100816.95
2023-09-14T18:48:19.177Z,100824.09
2023-09-14T18:53:26.437Z,100824.98
2023-09-14T19:03:43.982Z,100828.08
2023-09-14T19:08:53.078Z,100837.55
2023-09-14T19:14:00.766Z,100840.11
2023-09-14T19:19:08.231Z,100839.92
2023-09-14T19:24:15.604Z,100839.36
2023-09-14T19:29:22.823Z,100841.53
2023-09-14T19:34:30.271Z,100844.23
2023-09-14T19:39:37.579Z,100842.38
2023-09-14T19:44:48.622Z,100841.96
2023-09-14T19:49:55.990Z,100847.34
2023-09-14T19:55:03.640Z,100848.11
2023-09-14T20:00:12.642Z,100848.16
2023-09-14T20:05:20.513Z,100849.23
2023-09-14T20:10:27.807Z,100851.09
2023-09-14T20:15:36.136Z,100852.52
2023-09-14T20:20:43.710Z,100857.35
2023-09-14T20:25:51.491Z,100858.48
2023-09-14T20:30:59.367Z,100855.80
2023-09-14T20:36:07.208Z,100854.83
2023-09-14T20:41:15.901Z,100858.58
2023-09-14T20:46:23.786Z,100857.50
2023-09-14T20:51:31.184Z,100863.05
2023-09-14T20:56:38.582Z,100863.66
2023-09-14T21:01:46.033Z,100864.74
2023-09-14T21:06:54.238Z,100865.37
2023-09-14T21:12:01.867Z,100866.91
2023-09-14T21:17:09.310Z,100866.18
2023-09-14T21:22:16.664Z,100875.91
2023-09-14T21:27:24.198Z,100870.62
2023-09-14T21:32:31.909Z,100870.34
2023-09-14T21:37:39.181Z,100867.34
2023-09-14T21:42:47.868Z,100866.38
2023-09-14T21:47:55.228Z,100864.87
2023-09-14T21:53:02.470Z,100868.80
2023-09-14T21:58:09.719Z,100863.23
2023-09-14T22:03:17.006Z,100865.92
2023-09-14T22:08:24.764Z,100872.02
2023-09-14T22:13:31.940Z,100867.39
2023-09-14T22:18:40.087Z,100870.17
2023-09-14T22:23:48.781Z,100869.09
2023-09-14T22:28:56.150Z,100870.01
2023-09-14T22:34:03.713Z,100865.26
2023-09-14T22:39:11.649Z,100861.86
2023-09-14T22:44:19.057Z,100858.14
2023-09-14T22:49:27.675Z,100860.92
2023-09-14T22:54:35.333Z,100861.88
2023-09-14T22:59:42.658Z,100865.92
2023-09-14T23:04:49.881Z,100866.04
2023-09-14T23:09:57.044Z,100860.53
2023-09-14T23:15:08.764Z,100862.76
2023-09-14T23:20:25.156Z,100856.74
2023-09-14T23:25:33.946Z,100855.55
2023-09-14T23:30:41.167Z,100858.60
2023-09-14T23:35:48.424Z,100855.57
2023-09-14T23:40:56.074Z,100852.80
2023-09-14T23:46:04.933Z,100858.12
2023-09-14T23:51:12.370Z,100861.55
2023-09-14T23:56:19.604Z,100859.59
